Time;durP1;ratioP1;P1;durP2;ratioP2;P2;SDS_P1;SDS_P2;PMS_P1;PMS_P2;Temp;Humidity;BMP_temperature;BMP_pressure;BME280_temperature;BME280_humidity;BME280_pressure;Samples;Min_cycle;Max_cycle;Signal;HPM_P1;HPM_P2
2021/12/24 00:00:55;;;;;;;31.58;20.23;;;;;;;8.08;92.44;99141.19;4978662;28;20050;-84
2021/12/24 00:03:23;;;;;;;32.60;19.17;;;;;;;8.25;92.42;99140.34;4967803;28;20051;-84
2021/12/24 00:05:53;;;;;;;34.05;20.77;;;;;;;8.17;92.89;99141.19;4962069;29;20096;-83
2021/12/24 00:08:20;;;;;;;41.60;22.83;;;;;;;8.32;92.28;99143.41;4962016;28;20058;-84
2021/12/24 00:10:56;;;;;;;35.72;21.98;;;;;;;8.34;91.62;99140.31;4967160;28;20051;-83
2021/12/24 00:13:24;;;;;;;43.30;24.52;;;;;;;8.44;91.41;99139.13;4981879;28;20055;-84
2021/12/24 00:16:01;;;;;;;38.80;24.67;;;;;;;8.64;90.59;99138.38;4982166;28;20051;-84
2021/12/24 00:18:38;;;;;;;36.53;22.35;;;;;;;8.66;90.93;99138.88;4981467;28;20062;-84
2021/12/24 00:37:49;;;;;;;34.28;21.98;;;;;;;8.70;89.93;99112.06;4902504;29;20064;-86
2021/12/24 00:40:20;;;;;;;29.02;18.90;;;;;;;8.78;88.93;99121.50;4935078;28;20048;-84
2021/12/24 00:42:50;;;;;;;28.35;19.83;;;;;;;8.69;89.55;99117.94;4962768;28;20055;-84
2021/12/24 00:45:21;;;;;;;27.05;18.58;;;;;;;8.80;88.55;99119.22;4963361;28;20063;-84
2021/12/24 00:47:50;;;;;;;23.52;16.52;;;;;;;8.68;89.16;99119.91;4965162;28;20062;-84
2021/12/24 00:50:23;;;;;;;25.13;16.88;;;;;;;8.70;88.73;99120.41;5001651;28;20062;-84
2021/12/24 00:52:56;;;;;;;23.00;15.00;;;;;;;8.69;89.06;99121.56;4963574;28;20051;-85
2021/12/24 00:55:25;;;;;;;21.15;14.82;;;;;;;8.72;89.46;99114.53;4962536;29;20082;-83
2021/12/24 00:57:55;;;;;;;21.02;14.43;;;;;;;8.81;88.98;99120.81;4960874;28;20055;-84
2021/12/24 01:00:25;;;;;;;20.55;14.50;;;;;;;8.75;88.54;99116.59;4962971;28;20055;-85
2021/12/24 01:02:54;;;;;;;20.50;13.82;;;;;;;8.70;89.36;99125.94;4988772;28;20480;-84
2021/12/24 01:05:26;;;;;;;21.48;15.07;;;;;;;8.94;88.01;99119.78;4981238;28;20050;-84
2021/12/24 01:07:54;;;;;;;20.02;14.35;;;;;;;8.86;88.88;99114.25;4980415;28;20058;-85
2021/12/24 01:10:30;;;;;;;16.88;11.93;;;;;;;8.92;88.19;99121.25;4981491;28;20051;-85
2021/12/24 01:12:58;;;;;;;17.67;11.68;;;;;;;8.91;88.33;99123.22;4992909;28;20046;-84
2021/12/24 01:15:25;;;;;;;16.08;11.75;;;;;;;8.90;88.69;99126.31;5000976;28;20407;-84
2021/12/24 01:18:00;;;;;;;13.00;10.20;;;;;;;8.82;88.89;99116.91;4999816;28;20062;-85
2021/12/24 01:20:40;;;;;;;15.70;11.43;;;;;;;8.98;88.07;99113.53;5000029;28;20058;-86
2021/12/24 01:26:06;;;;;;;11.98;9.15;;;;;;;9.01;88.81;99110.91;4950420;28;20419;-86
2021/12/24 01:29:00;;;;;;;14.85;10.43;;;;;;;8.84;89.41;99102.66;4981502;28;20407;-86
2021/12/24 01:40:18;;;;;;;12.77;8.85;;;;;;;8.86;88.54;99100.38;4944535;29;20059;-85
2021/12/24 01:42:47;;;;;;;10.65;8.20;;;;;;;8.90;88.56;99093.81;4907304;29;20608;-86
2021/12/24 01:45:30;;;;;;;10.38;7.47;;;;;;;9.05;87.72;99091.56;4942619;29;20055;-86
2021/12/24 01:47:59;;;;;;;9.73;7.55;;;;;;;9.05;87.98;99088.81;4970661;28;20058;-86
2021/12/24 01:50:29;;;;;;;11.13;8.07;;;;;;;9.04;88.30;99099.09;4968793;28;20488;-85
2021/12/24 01:53:01;;;;;;;10.75;8.30;;;;;;;8.95;88.41;99087.25;4985997;28;20054;-86
2021/12/24 01:55:29;;;;;;;10.48;7.38;;;;;;;9.03;88.81;99091.94;4986599;28;20055;-85
2021/12/24 01:57:58;;;;;;;9.85;7.78;;;;;;;9.12;87.83;99089.09;4984207;28;20050;-86
2021/12/24 02:00:29;;;;;;;10.15;7.80;;;;;;;9.10;88.02;99083.06;4985175;28;20065;-85
2021/12/24 02:02:58;;;;;;;11.30;8.68;;;;;;;8.99;88.23;99088.22;4985242;28;20058;-85
2021/12/24 02:05:26;;;;;;;11.20;8.98;;;;;;;9.14;87.73;99087.59;4984495;28;20491;-85
2021/12/24 02:07:53;;;;;;;8.63;7.72;;;;;;;8.97;88.80;99084.16;4984782;28;20050;-85
2021/12/24 02:10:22;;;;;;;12.40;9.73;;;;;;;9.01;88.19;99077.56;4984711;28;20055;-85
2021/12/24 02:12:50;;;;;;;10.70;8.63;;;;;;;9.01;88.56;99074.81;4984745;28;20065;-85
2021/12/24 02:15:28;;;;;;;11.90;9.05;;;;;;;9.05;88.57;99074.91;4984299;28;20500;-85
2021/12/24 02:28:53;;;;;;;10.35;8.10;;;;;;;8.98;89.04;99053.25;4978691;28;20066;-84
2021/12/24 02:31:23;;;;;;;10.98;8.50;;;;;;;8.99;88.12;99057.66;4978518;28;20061;-85
2021/12/24 02:33:51;;;;;;;11.82;9.55;;;;;;;9.02;88.59;99061.72;4979094;28;20062;-83
2021/12/24 02:36:21;;;;;;;13.02;9.52;;;;;;;9.05;88.51;99055.47;4978890;28;20058;-85
2021/12/24 02:38:49;;;;;;;11.27;8.95;;;;;;;8.94;89.22;99047.56;4979009;28;20077;-86
2021/12/24 02:41:18;;;;;;;12.05;9.52;;;;;;;9.11;88.81;99059.66;4978568;28;20058;-86
2021/12/24 02:43:45;;;;;;;12.55;10.02;;;;;;;9.37;88.18;99058.66;4978840;28;20062;-85
2021/12/24 02:46:24;;;;;;;13.25;9.93;;;;;;;9.19;87.88;99052.44;4989308;28;20054;-85
2021/12/24 02:54:24;;;;;;;15.45;10.48;;;;;;;9.24;88.44;99049.44;4978713;28;20066;-85
2021/12/24 02:56:55;;;;;;;14.02;10.50;;;;;;;9.05;88.65;99047.97;4978535;28;20055;-84
2021/12/24 02:59:26;;;;;;;14.40;10.88;;;;;;;9.35;87.62;99045.91;4977843;28;20054;-85
2021/12/24 03:01:55;;;;;;;14.45;11.35;;;;;;;9.39;87.44;99036.91;4977684;28;20055;-85
2021/12/24 03:04:23;;;;;;;13.52;10.25;;;;;;;9.34;87.95;99035.94;4978112;28;20062;-85
2021/12/24 03:06:53;;;;;;;14.27;10.65;;;;;;;9.37;87.73;99034.44;4978404;28;20051;-85
2021/12/24 03:09:22;;;;;;;19.33;13.25;;;;;;;9.27;88.16;99041.22;4977928;28;20480;-85
2021/12/24 03:11:52;;;;;;;19.33;14.32;;;;;;;9.36;88.74;99041.16;4977383;28;20046;-85
2021/12/24 03:14:20;;;;;;;18.63;13.43;;;;;;;9.28;88.91;99050.38;4978230;28;20472;-85
2021/12/24 03:16:53;;;;;;;20.23;14.18;;;;;;;9.27;88.72;99034.88;4978326;28;20495;-85
2021/12/24 03:19:24;;;;;;;21.92;14.48;;;;;;;9.43;88.14;99035.03;4977625;28;20055;-85
2021/12/24 03:21:58;;;;;;;20.20;14.20;;;;;;;9.24;88.34;99032.75;4976816;28;20480;-85
2021/12/24 03:24:37;;;;;;;19.33;15.50;;;;;;;9.39;88.15;99028.56;4977485;28;20503;-85
2021/12/24 03:27:06;;;;;;;19.15;12.95;;;;;;;9.41;87.79;99029.84;4978537;28;20051;-86
2021/12/24 03:29:35;;;;;;;20.17;14.63;;;;;;;9.58;87.68;99033.59;4977680;28;20053;-85
2021/12/24 03:32:03;;;;;;;21.30;14.65;;;;;;;9.33;88.20;99034.31;4976838;28;20066;-85
2021/12/24 03:34:31;;;;;;;19.65;14.25;;;;;;;9.38;88.05;99026.91;4977127;28;20054;-85
2021/12/24 03:37:00;;;;;;;17.30;13.02;;;;;;;9.28;88.81;99026.19;4977254;28;20050;-85
2021/12/24 03:39:28;;;;;;;15.13;12.57;;;;;;;9.32;88.39;99029.91;4978117;28;20051;-85
2021/12/24 03:41:55;;;;;;;14.85;11.30;;;;;;;9.37;88.05;99022.53;4976543;28;20077;-85
2021/12/24 03:44:32;;;;;;;16.77;12.50;;;;;;;9.33;88.12;99025.97;4977693;28;20054;-85
2021/12/24 03:47:06;;;;;;;14.00;10.68;;;;;;;9.28;88.12;99028.97;4994321;28;20065;-85
2021/12/24 03:49:37;;;;;;;15.02;11.30;;;;;;;9.30;88.00;99031.41;4996565;28;20054;-85
2021/12/24 03:52:19;;;;;;;17.30;11.90;;;;;;;9.34;88.01;99024.00;4980774;28;20047;-85
2021/12/24 03:54:56;;;;;;;13.27;10.63;;;;;;;9.40;87.42;99024.63;4977387;28;20399;-85
2021/12/24 03:57:25;;;;;;;13.77;11.15;;;;;;;9.47;87.55;99028.47;4977061;28;20055;-86
2021/12/24 03:59:53;;;;;;;14.90;10.90;;;;;;;9.39;87.54;99025.78;4975840;28;20046;-86
2021/12/24 04:02:20;;;;;;;15.30;10.93;;;;;;;9.28;88.11;99031.75;4977096;28;20520;-85
2021/12/24 04:04:48;;;;;;;11.93;10.05;;;;;;;9.41;88.30;99037.34;4976890;28;20050;-85
2021/12/24 04:07:17;;;;;;;15.95;11.13;;;;;;;9.32;88.02;99034.66;4977008;28;20407;-86
2021/12/24 04:09:53;;;;;;;12.25;9.32;;;;;;;9.38;87.74;99032.47;4976862;28;20050;-86
2021/12/24 04:12:20;;;;;;;15.63;10.98;;;;;;;9.45;88.14;99038.28;4994522;28;20403;-86
2021/12/24 04:14:47;;;;;;;13.10;10.48;;;;;;;9.33;87.96;99031.53;4996137;28;20050;-86
2021/12/24 04:17:15;;;;;;;12.95;10.80;;;;;;;9.53;88.00;99037.38;4996942;28;20050;-86
2021/12/24 04:25:13;;;;;;;14.45;10.25;;;;;;;9.57;87.37;99034.75;4998155;28;20061;-86
2021/12/24 04:27:41;;;;;;;15.25;11.95;;;;;;;9.45;87.27;99028.00;4995006;28;20034;-85
2021/12/24 04:30:13;;;;;;;16.83;12.38;;;;;;;9.66;87.12;99039.06;4995181;28;20061;-86
2021/12/24 04:32:54;;;;;;;19.05;12.85;;;;;;;9.63;87.06;99042.50;4988297;28;20058;-85
2021/12/24 04:35:41;;;;;;;15.23;13.20;;;;;;;9.81;86.36;99045.13;4977047;28;20055;-85
2021/12/24 04:38:37;;;;;;;18.05;14.32;;;;;;;9.78;86.27;99040.22;4975800;28;20055;-85
2021/12/24 04:52:14;;;;;;;20.30;15.30;;;;;;;9.25;87.72;99043.53;4993868;28;20065;-86
2021/12/24 05:03:03;;;;;;;23.35;15.13;;;;;;;9.61;86.85;99041.25;4993535;28;20053;-86
2021/12/24 05:05:42;;;;;;;20.67;13.63;;;;;;;9.46;86.61;99042.69;4995068;28;20483;-85
2021/12/24 05:08:24;;;;;;;19.47;14.83;;;;;;;9.67;86.67;99029.56;4996064;28;20050;-85
2021/12/24 05:10:53;;;;;;;18.63;14.35;;;;;;;9.55;85.88;99043.41;4989338;28;20517;-85
2021/12/24 05:13:22;;;;;;;20.55;15.05;;;;;;;9.67;86.65;99049.00;4980746;28;20046;-86
2021/12/24 05:15:54;;;;;;;18.52;13.93;;;;;;;9.70;86.08;99045.56;4980316;28;20047;-87
2021/12/24 05:18:46;;;;;;;22.27;16.48;;;;;;;9.63;86.51;99050.84;4979579;28;20491;-87
2021/12/24 05:23:59;;;;;;;24.75;16.25;;;;;;;9.81;85.76;99050.69;4980032;28;20082;-86
2021/12/24 05:26:29;;;;;;;24.92;17.33;;;;;;;9.83;85.86;99049.19;4979522;28;20514;-85
2021/12/24 05:28:58;;;;;;;25.77;18.55;;;;;;;9.76;86.09;99060.03;4979525;28;20054;-85
2021/12/24 05:31:25;;;;;;;23.13;17.10;;;;;;;9.84;86.07;99052.75;4987612;28;20050;-85
2021/12/24 05:33:53;;;;;;;22.90;17.85;;;;;;;9.91;86.03;99048.28;4980126;28;20970;-84
2021/12/24 05:36:20;;;;;;;26.02;18.48;;;;;;;9.91;85.91;99042.72;4980074;28;20416;-85
2021/12/24 05:38:48;;;;;;;26.00;18.17;;;;;;;9.78;85.34;99045.78;4979437;28;20047;-86
2021/12/24 05:41:15;;;;;;;25.65;18.23;;;;;;;9.78;86.55;99043.03;4988321;28;20407;-86
2021/12/24 05:43:44;;;;;;;24.98;18.23;;;;;;;9.62;86.50;99051.22;4999914;28;20062;-85
2021/12/24 05:46:12;;;;;;;23.40;17.63;;;;;;;9.85;86.40;99049.66;4999667;28;20053;-85
2021/12/24 05:48:39;;;;;;;30.42;20.83;;;;;;;9.95;85.91;99063.13;4998683;28;20065;-85
2021/12/24 05:51:06;;;;;;;26.85;19.55;;;;;;;9.93;84.98;99047.91;4996255;28;20055;-85
2021/12/24 05:53:34;;;;;;;25.63;18.80;;;;;;;9.93;85.60;99053.47;4979711;28;20507;-85
2021/12/24 05:56:01;;;;;;;26.48;18.05;;;;;;;9.82;85.88;99041.16;4979338;28;20066;-85
2021/12/24 05:58:28;;;;;;;25.42;18.70;;;;;;;9.82;85.95;99049.50;4979753;28;20408;-86
2021/12/24 06:00:58;;;;;;;22.92;17.05;;;;;;;9.83;86.00;99053.94;4978701;28;20057;-85
2021/12/24 06:03:25;;;;;;;24.23;17.60;;;;;;;9.79;85.62;99058.56;4994746;28;20526;-85
2021/12/24 06:05:52;;;;;;;23.13;15.80;;;;;;;9.70;85.18;99059.47;4999810;28;20057;-84
2021/12/24 06:08:20;;;;;;;24.70;17.98;;;;;;;9.73;85.86;99055.97;4998249;28;20062;-85
2021/12/24 06:10:47;;;;;;;22.55;17.45;;;;;;;9.79;85.46;99055.78;4999120;28;20410;-85
2021/12/24 06:13:14;;;;;;;22.17;16.92;;;;;;;9.61;85.61;99063.47;4995459;28;20061;-85
2021/12/24 06:15:45;;;;;;;22.08;16.10;;;;;;;9.79;84.90;99061.34;4979423;28;20456;-85
2021/12/24 06:18:22;;;;;;;23.02;17.05;;;;;;;9.81;84.37;99068.19;4978086;28;20425;-85
2021/12/24 06:20:50;;;;;;;24.60;15.80;;;;;;;9.89;84.39;99074.78;4983757;28;20057;-85
2021/12/24 06:23:19;;;;;;;21.20;15.80;;;;;;;9.73;84.34;99072.66;4997914;28;20066;-84
2021/12/24 06:25:46;;;;;;;20.35;14.63;;;;;;;9.73;83.99;99069.88;4998772;28;20054;-85
2021/12/24 06:28:14;;;;;;;20.40;15.63;;;;;;;9.66;85.00;99077.16;4998754;28;20050;-85
2021/12/24 06:30:41;;;;;;;20.75;15.63;;;;;;;9.85;84.01;99085.81;4981172;28;20066;-85
2021/12/24 06:33:10;;;;;;;23.52;16.20;;;;;;;9.57;84.75;99071.69;4973859;28;20073;-85
2021/12/24 06:35:39;;;;;;;21.05;15.90;;;;;;;9.76;84.18;99071.16;4984675;28;20065;-85
2021/12/24 06:38:08;;;;;;;23.98;16.48;;;;;;;9.91;83.99;99080.81;4978716;28;20050;-86
2021/12/24 06:40:36;;;;;;;23.52;16.63;;;;;;;9.71;84.32;99074.16;4978815;28;20046;-86
2021/12/24 06:43:04;;;;;;;24.55;17.05;;;;;;;9.79;84.37;99075.25;4979061;28;20050;-86
2021/12/24 06:45:34;;;;;;;24.13;16.80;;;;;;;9.88;83.78;99082.31;4978992;28;20054;-86
2021/12/24 06:48:04;;;;;;;23.52;17.05;;;;;;;9.71;84.14;99090.84;4974944;28;20055;-86
2021/12/24 06:50:32;;;;;;;29.33;18.27;;;;;;;9.74;84.30;99084.59;4956119;29;20399;-86
2021/12/24 06:53:01;;;;;;;24.88;16.73;;;;;;;9.81;84.34;99095.97;4939659;29;20063;-86
2021/12/24 06:55:29;;;;;;;27.92;17.10;;;;;;;9.73;82.91;99089.34;4941682;29;20406;-85
2021/12/24 06:57:57;;;;;;;23.95;17.83;;;;;;;9.88;83.52;99089.84;4939599;29;20056;-85
2021/12/24 07:00:25;;;;;;;29.15;18.35;;;;;;;9.96;83.82;99086.16;4941254;29;20059;-83
2021/12/24 07:02:53;;;;;;;30.23;18.02;;;;;;;9.96;84.00;99081.41;4959747;29;20055;-84
2021/12/24 07:05:21;;;;;;;26.25;17.42;;;;;;;9.85;83.61;99093.31;4954700;28;20052;-84
2021/12/24 07:07:49;;;;;;;24.02;17.90;;;;;;;9.93;83.56;99086.84;4939401;29;20058;-84
2021/12/24 07:10:17;;;;;;;21.88;16.77;;;;;;;9.98;83.29;99083.06;4940777;28;20056;-85
2021/12/24 07:12:45;;;;;;;24.90;18.23;;;;;;;10.00;83.17;99089.09;4957199;29;20428;-85
2021/12/24 07:15:12;;;;;;;27.73;17.42;;;;;;;10.05;83.23;99088.84;4944829;29;20052;-85
2021/12/24 07:17:40;;;;;;;24.17;17.38;;;;;;;10.16;83.05;99081.66;4939513;29;20055;-85
2021/12/24 07:20:08;;;;;;;29.30;18.05;;;;;;;9.95;82.82;99082.59;4943623;29;20056;-85
2021/12/24 07:22:35;;;;;;;25.65;17.35;;;;;;;9.90;83.26;99076.41;4939929;29;20063;-85
2021/12/24 07:25:06;;;;;;;25.45;17.52;;;;;;;10.01;82.70;99083.16;4939423;29;20060;-85
2021/12/24 07:27:35;;;;;;;32.38;17.95;;;;;;;10.02;83.14;99082.00;4938901;29;20056;-85
2021/12/24 07:30:05;;;;;;;25.10;17.40;;;;;;;10.05;82.96;99091.63;4938848;29;20056;-85
2021/12/24 07:32:32;;;;;;;25.75;19.15;;;;;;;10.07;83.24;99092.09;4958073;28;20078;-84
2021/12/24 07:34:59;;;;;;;27.80;17.60;;;;;;;9.88;82.65;99090.66;4948247;28;20051;-85
2021/12/24 07:37:27;;;;;;;27.52;18.65;;;;;;;10.09;83.04;99098.13;4938511;29;20060;-84
2021/12/24 07:39:54;;;;;;;30.02;20.33;;;;;;;10.09;83.09;99090.59;4939226;29;20386;-85
2021/12/24 07:42:23;;;;;;;33.38;20.20;;;;;;;10.08;83.26;99104.84;4938394;29;20052;-85
2021/12/24 07:44:52;;;;;;;34.30;20.02;;;;;;;9.89;82.79;99099.81;4937968;29;20066;-86
2021/12/24 07:47:27;;;;;;;28.60;19.47;;;;;;;9.84;83.23;99106.41;4957471;29;20059;-85
2021/12/24 07:50:01;;;;;;;26.85;17.52;;;;;;;9.77;82.78;99111.72;4974657;28;20061;-85
2021/12/24 07:52:28;;;;;;;24.80;17.17;;;;;;;9.88;82.35;99109.31;4994836;28;20050;-86
2021/12/24 07:54:56;;;;;;;27.48;17.35;;;;;;;9.87;83.02;99116.03;4978740;28;20054;-85
2021/12/24 07:57:25;;;;;;;28.25;17.83;;;;;;;9.87;82.83;99104.91;4976396;28;20050;-85
2021/12/24 07:59:53;;;;;;;25.73;17.90;;;;;;;9.85;82.58;99113.59;4977055;28;20091;-84
2021/12/24 08:02:26;;;;;;;27.23;17.25;;;;;;;9.83;82.97;99110.38;4976350;28;20062;-84
2021/12/24 08:04:56;;;;;;;32.08;18.80;;;;;;;9.88;82.94;99107.34;4977282;28;20054;-85
2021/12/24 08:07:23;;;;;;;28.40;17.80;;;;;;;9.97;82.79;99101.69;4976111;28;20055;-85
2021/12/24 08:09:52;;;;;;;27.67;19.08;;;;;;;10.01;82.75;99104.59;4976621;28;20050;-86
2021/12/24 08:12:20;;;;;;;30.27;18.85;;;;;;;10.21;82.52;99100.13;4976964;28;20057;-87
2021/12/24 08:14:48;;;;;;;27.73;18.95;;;;;;;9.91;82.67;99101.13;4976540;28;20061;-86
2021/12/24 08:17:17;;;;;;;23.98;16.90;;;;;;;9.92;81.85;99097.16;4976035;28;20057;-86
2021/12/24 08:19:44;;;;;;;23.08;17.30;;;;;;;10.02;82.02;99090.34;4976400;28;20051;-86
2021/12/24 08:22:12;;;;;;;25.50;17.13;;;;;;;9.90;80.97;99091.13;4987128;28;20496;-86
2021/12/24 08:24:41;;;;;;;28.05;18.25;;;;;;;9.83;82.56;99088.13;4977077;28;20061;-86
2021/12/24 08:27:09;;;;;;;25.98;17.48;;;;;;;9.74;82.22;99091.00;4977169;28;20503;-86
2021/12/24 08:29:37;;;;;;;28.40;17.67;;;;;;;9.97;82.35;99087.78;4976601;28;20054;-85
2021/12/24 08:32:05;;;;;;;24.30;16.98;;;;;;;9.80;82.68;99076.84;4991407;28;20058;-85
2021/12/24 08:34:34;;;;;;;29.27;17.88;;;;;;;9.89;82.18;99083.97;4977361;28;20411;-85
2021/12/24 08:37:02;;;;;;;24.93;17.37;;;;;;;9.78;81.47;99073.59;4976446;28;20070;-85
2021/12/24 08:39:30;;;;;;;22.08;14.98;;;;;;;9.66;81.82;99082.72;4976044;28;20135;-85
2021/12/24 08:41:57;;;;;;;26.17;15.73;;;;;;;9.74;81.78;99084.59;4976288;28;20503;-86
2021/12/24 08:44:29;;;;;;;25.80;16.13;;;;;;;9.86;81.97;99069.91;4976516;28;20050;-86
2021/12/24 08:47:00;;;;;;;28.55;16.50;;;;;;;9.63;81.29;99075.06;4979732;28;20052;-84
2021/12/24 08:49:28;;;;;;;25.70;15.40;;;;;;;9.78;81.81;99073.59;4980322;28;20070;-83
2021/12/24 08:51:57;;;;;;;22.33;13.88;;;;;;;9.81;81.46;99075.72;4982736;28;20392;-86
2021/12/24 08:54:24;;;;;;;24.23;15.30;;;;;;;10.02;81.36;99076.44;4980761;28;20054;-84
2021/12/24 08:56:55;;;;;;;24.25;15.15;;;;;;;10.00;81.19;99070.41;4980509;28;20050;-85
2021/12/24 08:59:24;;;;;;;25.42;15.48;;;;;;;10.02;80.52;99082.00;4980704;28;20081;-84
2021/12/24 09:01:51;;;;;;;24.08;15.10;;;;;;;10.02;80.23;99072.88;4980381;28;20055;-84
2021/12/24 09:04:18;;;;;;;23.42;14.25;;;;;;;9.92;80.04;99079.66;4981009;28;20059;-84
2021/12/24 09:06:46;;;;;;;22.15;12.98;;;;;;;9.95;80.37;99079.81;4981275;28;20054;-84
2021/12/24 09:09:15;;;;;;;25.42;14.77;;;;;;;9.78;80.13;99074.41;4980072;28;20062;-84
2021/12/24 09:11:44;;;;;;;28.05;14.73;;;;;;;9.87;79.40;99075.16;4992780;28;20495;-85
2021/12/24 09:14:17;;;;;;;23.17;14.50;;;;;;;10.02;79.58;99061.75;4999799;28;20065;-85
2021/12/24 09:16:45;;;;;;;24.52;14.05;;;;;;;10.05;79.06;99064.63;4999619;28;20853;-85
2021/12/24 09:19:16;;;;;;;23.85;13.60;;;;;;;9.82;79.21;99066.19;4988856;28;20051;-85
2021/12/24 09:21:44;;;;;;;24.77;14.15;;;;;;;10.09;78.65;99071.13;4992014;28;20050;-84
2021/12/24 09:24:11;;;;;;;20.25;12.95;;;;;;;10.06;79.23;99055.13;4998636;28;20050;-84
2021/12/24 09:26:40;;;;;;;22.42;15.93;;;;;;;10.27;78.43;99057.81;4999434;28;20093;-84
2021/12/24 09:29:09;;;;;;;23.60;15.32;;;;;;;10.19;77.67;99058.72;4996763;28;20049;-85
2021/12/24 09:31:37;;;;;;;24.02;15.70;;;;;;;10.27;77.62;99051.44;4996992;28;20061;-84
2021/12/24 09:34:05;;;;;;;23.20;15.55;;;;;;;10.43;77.40;99055.16;4999381;28;20396;-85
2021/12/24 09:36:33;;;;;;;24.52;15.77;;;;;;;9.97;78.40;99059.97;5000130;28;20051;-85
2021/12/24 09:39:02;;;;;;;26.52;17.25;;;;;;;10.02;78.31;99067.31;4999522;28;20058;-85
2021/12/24 09:41:29;;;;;;;24.50;16.95;;;;;;;10.11;78.32;99054.09;4992422;28;20408;-85
2021/12/24 09:43:59;;;;;;;28.35;17.45;;;;;;;9.99;78.59;99057.66;4992312;28;20515;-85
2021/12/24 09:46:27;;;;;;;26.42;15.77;;;;;;;10.20;78.30;99051.19;4986416;28;20050;-85
2021/12/24 09:48:55;;;;;;;28.60;18.67;;;;;;;10.25;77.91;99059.31;4989029;28;20518;-85
2021/12/24 09:51:24;;;;;;;25.60;15.90;;;;;;;10.09;78.05;99046.06;4996993;28;20522;-85
2021/12/24 09:53:52;;;;;;;30.77;16.02;;;;;;;10.06;78.22;99046.78;4998290;28;20057;-85
2021/12/24 09:56:21;;;;;;;26.30;16.42;;;;;;;10.10;77.98;99047.72;4998957;28;20051;-85
2021/12/24 09:58:49;;;;;;;23.10;14.40;;;;;;;9.92;78.06;99052.66;4997763;28;20057;-85
2021/12/24 10:01:32;;;;;;;24.42;15.10;;;;;;;9.98;78.00;99050.47;4986633;28;20491;-85
2021/12/24 10:04:05;;;;;;;25.83;16.08;;;;;;;10.23;77.65;99047.72;5004519;28;20061;-85
2021/12/24 10:06:32;;;;;;;28.50;13.45;;;;;;;10.12;77.04;99045.41;4998387;28;20050;-85
2021/12/24 10:09:03;;;;;;;27.60;15.23;;;;;;;10.08;76.74;99040.84;4995102;28;20049;-85
2021/12/24 10:11:31;;;;;;;23.15;13.95;;;;;;;10.27;77.11;99055.03;4978857;28;20065;-85
2021/12/24 10:14:05;;;;;;;24.38;13.45;;;;;;;10.39;76.38;99036.72;4978746;28;20407;-85
2021/12/24 10:16:42;;;;;;;23.80;14.30;;;;;;;10.45;74.98;99046.47;4979104;28;20446;-85
2021/12/24 10:19:10;;;;;;;20.17;13.27;;;;;;;10.53;75.69;99037.19;4978578;28;20055;-85
2021/12/24 10:21:38;;;;;;;21.52;12.30;;;;;;;10.30;75.59;99040.44;4979477;28;20061;-86
2021/12/24 10:24:12;;;;;;;21.10;12.25;;;;;;;10.62;75.47;99043.44;4978484;28;20081;-85
2021/12/24 10:26:45;;;;;;;23.30;12.20;;;;;;;10.68;75.02;99044.00;4977685;28;20055;-85
2021/12/24 10:29:15;;;;;;;21.25;12.30;;;;;;;10.85;74.11;99042.94;4979729;28;20061;-85
2021/12/24 10:31:48;;;;;;;25.13;12.10;;;;;;;10.84;73.95;99044.91;4991187;28;20055;-84
2021/12/24 10:34:24;;;;;;;21.15;12.02;;;;;;;10.64;74.06;99048.66;4998222;28;20487;-84
2021/12/24 10:36:57;;;;;;;21.00;11.55;;;;;;;10.74;73.02;99059.31;4998805;28;20084;-84
2021/12/24 10:39:26;;;;;;;21.42;11.75;;;;;;;10.61;73.42;99047.38;4998268;28;20057;-84
2021/12/24 10:41:56;;;;;;;18.73;11.73;;;;;;;10.64;74.01;99052.25;4989355;28;20043;-85
2021/12/24 10:44:25;;;;;;;18.83;11.15;;;;;;;10.79;73.66;99049.91;4972997;28;20065;-84
2021/12/24 10:47:04;;;;;;;24.50;12.02;;;;;;;10.53;73.84;99043.56;4978367;28;20066;-84
2021/12/24 10:49:54;;;;;;;19.13;12.45;;;;;;;10.48;74.51;99046.59;4975151;28;20063;-84
2021/12/24 10:55:11;;;;;;;22.27;12.85;;;;;;;10.81;73.55;99045.59;4976242;28;20062;-85
2021/12/24 10:57:41;;;;;;;21.65;12.00;;;;;;;10.75;73.12;99055.38;4978718;28;20066;-84
2021/12/24 11:00:17;;;;;;;21.90;12.52;;;;;;;10.76;73.05;99051.44;4987797;28;20058;-85
2021/12/24 11:02:51;;;;;;;22.48;11.70;;;;;;;10.37;74.70;99048.19;4986114;28;20054;-85
2021/12/24 11:05:34;;;;;;;17.20;11.05;;;;;;;10.71;73.77;99049.69;4988468;28;20066;-84
2021/12/24 11:08:05;;;;;;;21.65;12.18;;;;;;;10.80;73.89;99055.13;4978694;28;20055;-85
2021/12/24 11:10:34;;;;;;;19.27;12.50;;;;;;;10.74;73.66;99056.53;4978393;28;20404;-85
2021/12/24 11:13:08;;;;;;;17.87;12.10;;;;;;;10.82;74.31;99052.81;4979228;28;20514;-85
2021/12/24 11:15:38;;;;;;;22.20;11.40;;;;;;;10.84;74.36;99052.47;4978393;28;20054;-85
2021/12/24 11:18:09;;;;;;;22.55;12.55;;;;;;;10.85;74.22;99059.66;4978695;28;20051;-85
2021/12/24 11:20:37;;;;;;;19.48;12.18;;;;;;;10.71;74.96;99071.19;4980833;28;20050;-85
2021/12/24 11:23:08;;;;;;;20.38;12.23;;;;;;;10.68;75.01;99066.28;4978447;28;20514;-85
2021/12/24 11:25:38;;;;;;;24.30;12.40;;;;;;;10.79;75.03;99055.47;4994408;28;20061;-85
2021/12/24 11:28:08;;;;;;;24.75;14.82;;;;;;;10.69;75.28;99068.72;4997915;28;20061;-84
2021/12/24 11:30:38;;;;;;;20.77;13.23;;;;;;;10.56;75.94;99065.16;4979896;28;20507;-85
2021/12/24 11:33:06;;;;;;;26.00;15.00;;;;;;;10.61;75.81;99066.06;4992753;28;20046;-85
2021/12/24 11:35:35;;;;;;;23.98;14.32;;;;;;;10.54;77.07;99063.84;4996434;28;20046;-82
2021/12/24 11:38:02;;;;;;;26.65;15.10;;;;;;;10.24;77.66;99066.03;4976200;28;20055;-79
2021/12/24 11:40:30;;;;;;;20.83;13.05;;;;;;;10.25;77.70;99060.13;4993129;28;20053;-78
2021/12/24 11:43:03;;;;;;;21.35;12.90;;;;;;;10.26;77.92;99058.16;4975427;28;20062;-78
2021/12/24 11:45:33;;;;;;;21.70;11.98;;;;;;;10.07;78.46;99055.94;4975355;28;20520;-78
2021/12/24 11:48:01;;;;;;;;;;;;;;;10.00;78.19;99047.34;4989997;28;20065;-77
2021/12/24 11:50:31;;;;;;;21.88;12.63;;;;;;;9.99;78.71;99054.88;4994982;28;19921;-79
2021/12/24 11:53:07;;;;;;;18.25;12.27;;;;;;;9.93;79.03;99047.91;4978430;28;20046;-78
2021/12/24 11:55:37;;;;;;;19.67;12.25;;;;;;;9.95;79.24;99049.22;4989281;28;20534;-78
2021/12/24 11:58:07;;;;;;;21.58;12.23;;;;;;;9.85;79.36;99049.66;4976054;28;20066;-78
2021/12/24 12:00:38;;;;;;;18.77;10.52;;;;;;;9.98;78.75;99044.09;4978380;28;20057;-77
2021/12/24 12:03:06;;;;;;;18.10;10.70;;;;;;;10.07;78.03;99042.81;4982617;28;20066;-77
2021/12/24 12:05:36;;;;;;;20.88;11.27;;;;;;;9.63;78.85;99044.50;4988878;28;20411;-77
2021/12/24 12:08:33;;;;;;;20.83;10.60;;;;;;;9.79;78.32;99041.88;4975754;28;20061;-77
2021/12/24 12:11:02;;;;;;;19.95;9.95;;;;;;;9.95;78.19;99028.91;4979121;28;20052;-77
2021/12/24 12:13:45;;;;;;;18.63;9.40;;;;;;;9.80;78.31;99029.59;4956185;29;20051;-78
2021/12/24 12:16:14;;;;;;;16.77;9.18;;;;;;;9.93;78.49;99026.50;4980545;28;21608;-78
2021/12/24 12:18:49;;;;;;;16.58;9.07;;;;;;;10.22;77.44;99021.84;4998061;28;20057;-80
2021/12/24 12:21:35;;;;;;;19.73;10.45;;;;;;;10.21;77.14;99025.00;4983345;28;20387;-78
2021/12/24 12:27:02;;;;;;;17.30;10.50;;;;;;;10.27;76.92;99016.06;4918656;29;20044;-80
2021/12/24 12:29:33;;;;;;;16.00;9.60;;;;;;;10.32;76.83;99020.63;4964012;28;20057;-79
2021/12/24 12:32:26;;;;;;;13.82;9.80;;;;;;;10.41;76.70;99017.72;4977401;28;20042;-78
2021/12/24 12:34:58;;;;;;;16.42;9.52;;;;;;;10.25;77.03;99020.38;4975160;28;20050;-79
2021/12/24 12:37:28;;;;;;;17.35;9.40;;;;;;;10.30;76.57;99017.38;4977740;28;20058;-80
2021/12/24 12:39:58;;;;;;;16.52;10.10;;;;;;;10.32;76.68;99015.06;4977896;28;20051;-79
2021/12/24 12:43:02;;;;;;;16.00;10.50;;;;;;;10.31;77.11;99024.53;4977824;28;20059;-79
2021/12/24 12:45:55;;;;;;;20.15;10.63;;;;;;;10.60;75.97;99015.13;4978494;28;20055;-80
2021/12/24 12:48:26;;;;;;;20.30;11.30;;;;;;;10.35;76.50;99017.94;4977409;28;20062;-80
2021/12/24 12:50:57;;;;;;;14.32;9.63;;;;;;;10.36;76.55;99019.56;4976682;28;20051;-80
2021/12/24 12:53:28;;;;;;;14.95;10.60;;;;;;;10.28;77.19;99014.09;4979552;28;20385;-78
2021/12/24 12:56:14;;;;;;;20.05;10.70;;;;;;;10.17;77.45;99013.75;4974962;28;20058;-77
2021/12/24 12:58:43;;;;;;;15.73;9.50;;;;;;;10.05;77.91;99008.97;4971347;28;20049;-77